51.2°F
Current conditions from King Hill
Updated every 5 minutes
 
  Wednesday October 1, 2014

Station Historical Data
Daily Summary for April 7, 2012 Units:  Both    English   Metric
« Previous Day
Next Day »
Daily Weekly Monthly Yearly Custom
  High: Low: Average:
Temperature: 46.0 °F /  7.8 °C 31.5 °F /  -0.3 °C 39.1 °F /  3.9 °C
Dew Point: 24.8 °F /  -4 °C 16.8 °F /  -8.4 °C 20.1 °F /  -6.6 °C
Humidity: 57% 36% 47%
Wind Speed: 9.0mph /  14.5km/h - 3.3mph /  5.3km/h
Wind Gust: 20.0mph /  32.2km/h - -
Wind- - SSW
Pressure: 30.05 in /  1017.5 hPa 29.98 in /  1015.1 hPa -
Precipitation: 0.00 in /  0 mm    
Historical Graphs
 
 
Tabular Data for April 7, 2012
Time Temperature Dew Point Pressure Wind Wind Speed Wind Gust Humidity Daily Rainfall
00:04 33.8 °F /  1 °C 18.5 °F /  -7.5 °C 29.99in /  1015.5hPa Calm     53% 0.00in /  0mm
00:09 33.4 °F /  0.8 °C 18.1 °F /  -7.7 °C 29.99in /  1015.5hPa Calm     53% 0.00in /  0mm
00:14 33.3 °F /  0.7 °C 17.6 °F /  -8 °C 29.99in /  1015.5hPa Calm     52% 0.00in /  0mm
00:19 33.2 °F /  0.7 °C 17.0 °F /  -8.3 °C 29.99in /  1015.5hPa Calm     51% 0.00in /  0mm
00:24 32.6 °F /  0.3 °C 16.9 °F /  -8.4 °C 29.99in /  1015.5hPa Calm     52% 0.00in /  0mm
00:29 32.2 °F /  0.1 °C 17.0 °F /  -8.3 °C 29.99in /  1015.5hPa Calm   1.0mph /  1.6km/h 53% 0.00in /  0mm
00:34 32.0 °F /  0 °C 17.7 °F /  -7.9 °C 29.99in /  1015.5hPa Calm   1.0mph /  1.6km/h 55% 0.00in /  0mm
00:40 31.7 °F /  -0.2 °C 17.0 °F /  -8.3 °C 29.99in /  1015.5hPa Calm     54% 0.00in /  0mm
00:50 31.5 °F /  -0.3 °C 17.2 °F /  -8.2 °C 29.99in /  1015.5hPa Calm     55% 0.00in /  0mm
00:59 31.8 °F /  -0.1 °C 18.3 °F /  -7.6 °C 29.99in /  1015.5hPa Calm     57% 0.00in /  0mm
01:04 32.2 °F /  0.1 °C 17.0 °F /  -8.3 °C 29.99in /  1015.5hPa Calm     53% 0.00in /  0mm
01:09 32.9 °F /  0.5 °C 18.1 °F /  -7.7 °C 29.99in /  1015.5hPa Calm   1.0mph /  1.6km/h 54% 0.00in /  0mm
01:14 33.5 °F /  0.8 °C 18.2 °F /  -7.7 °C 29.98in /  1015.1hPa Calm   2.0mph /  3.2km/h 53% 0.00in /  0mm
01:19 33.8 °F /  1 °C 18.0 °F /  -7.8 °C 29.98in /  1015.1hPa Calm   2.0mph /  3.2km/h 52% 0.00in /  0mm
01:24 33.9 °F /  1.1 °C 18.1 °F /  -7.7 °C 29.98in /  1015.1hPa Calm     52% 0.00in /  0mm
01:29 34.4 °F /  1.3 °C 18.1 °F /  -7.7 °C 29.98in /  1015.1hPa Calm   1.0mph /  1.6km/h 51% 0.00in /  0mm
01:39 34.3 °F /  1.3 °C 19.8 °F /  -6.8 °C 29.98in /  1015.1hPa Calm     55% 0.00in /  0mm
01:44 34.0 °F /  1.1 °C 18.7 °F /  -7.4 °C 29.98in /  1015.1hPa Calm     53% 0.00in /  0mm
01:49 34.2 °F /  1.2 °C 18.0 °F /  -7.8 °C 29.98in /  1015.1hPa Calm     51% 0.00in /  0mm
01:59 35.1 °F /  1.7 °C 18.3 °F /  -7.6 °C 29.98in /  1015.1hPa Calm   1.0mph /  1.6km/h 50% 0.00in /  0mm
02:04 35.5 °F /  1.9 °C 17.3 °F /  -8.2 °C 29.98in /  1015.1hPa Calm   1.0mph /  1.6km/h 47% 0.00in /  0mm
02:10 35.9 °F /  2.2 °C 17.1 °F /  -8.3 °C 29.98in /  1015.1hPa Calm   2.0mph /  3.2km/h 46% 0.00in /  0mm
02:20 36.5 °F /  2.5 °C 17.2 °F /  -8.2 °C 29.98in /  1015.1hPa Calm   2.0mph /  3.2km/h 45% 0.00in /  0mm
02:29 36.5 °F /  2.5 °C 17.7 °F /  -7.9 °C 29.98in /  1015.1hPa Calm   2.0mph /  3.2km/h 46% 0.00in /  0mm
02:34 36.3 °F /  2.4 °C 17.0 °F /  -8.3 °C 29.98in /  1015.1hPa NNW 1.0mph /  1.6km/h 4.0mph /  6.4km/h 45% 0.00in /  0mm
02:40 36.1 °F /  2.3 °C 17.3 °F /  -8.2 °C 29.98in /  1015.1hPa Calm   4.0mph /  6.4km/h 46% 0.00in /  0mm
02:49 35.7 °F /  2.1 °C 17.4 °F /  -8.1 °C 29.98in /  1015.1hPa Calm   2.0mph /  3.2km/h 47% 0.00in /  0mm
02:54 35.5 °F /  1.9 °C 16.8 °F /  -8.4 °C 29.98in /  1015.1hPa NNW 1.0mph /  1.6km/h 4.0mph /  6.4km/h 46% 0.00in /  0mm
02:59 35.5 °F /  1.9 °C 17.3 °F /  -8.2 °C 29.98in /  1015.1hPa Calm   4.0mph /  6.4km/h 47% 0.00in /  0mm
03:04 35.2 °F /  1.8 °C 17.0 °F /  -8.3 °C 29.98in /  1015.1hPa NNE 1.0mph /  1.6km/h 6.0mph /  9.7km/h 47% 0.00in /  0mm
03:09 34.9 °F /  1.6 °C 17.2 °F /  -8.2 °C 29.98in /  1015.1hPa North 3.0mph /  4.8km/h 7.0mph /  11.3km/h 48% 0.00in /  0mm
03:19 34.4 °F /  1.3 °C 17.7 °F /  -7.9 °C 29.98in /  1015.1hPa Calm   7.0mph /  11.3km/h 50% 0.00in /  0mm
03:24 34.1 °F /  1.2 °C 17.4 °F /  -8.1 °C 29.98in /  1015.1hPa Calm   4.0mph /  6.4km/h 50% 0.00in /  0mm
03:29 33.8 °F /  1 °C 18.0 °F /  -7.8 °C 29.98in /  1015.1hPa Calm   4.0mph /  6.4km/h 52% 0.00in /  0mm
03:34 33.5 °F /  0.8 °C 18.2 °F /  -7.7 °C 29.98in /  1015.1hPa Calm   1.0mph /  1.6km/h 53% 0.00in /  0mm
03:40 33.3 °F /  0.7 °C 17.6 °F /  -8 °C 29.98in /  1015.1hPa Calm   2.0mph /  3.2km/h 52% 0.00in /  0mm
03:49 33.0 °F /  0.6 °C 17.3 °F /  -8.2 °C 29.98in /  1015.1hPa Calm   2.0mph /  3.2km/h 52% 0.00in /  0mm
03:55 33.2 °F /  0.7 °C 17.5 °F /  -8.1 °C 29.98in /  1015.1hPa Calm   2.0mph /  3.2km/h 52% 0.00in /  0mm
04:04 33.4 °F /  0.8 °C 18.1 °F /  -7.7 °C 29.98in /  1015.1hPa NNE 1.0mph /  1.6km/h 5.0mph /  8km/h 53% 0.00in /  0mm
04:09 33.8 °F /  1 °C 18.0 °F /  -7.8 °C 29.98in /  1015.1hPa NNE 1.0mph /  1.6km/h 5.0mph /  8km/h 52% 0.00in /  0mm
04:14 33.9 °F /  1.1 °C 19.4 °F /  -7 °C 29.98in /  1015.1hPa Calm   5.0mph /  8km/h 55% 0.00in /  0mm
04:19 33.8 °F /  1 °C 19.3 °F /  -7.1 °C 29.98in /  1015.1hPa Calm   1.0mph /  1.6km/h 55% 0.00in /  0mm
04:24 33.9 °F /  1.1 °C 17.7 °F /  -7.9 °C 29.98in /  1015.1hPa NNE 2.0mph /  3.2km/h 9.0mph /  14.5km/h 51% 0.00in /  0mm
04:29 34.4 °F /  1.3 °C 19.0 °F /  -7.2 °C 29.98in /  1015.1hPa Calm   9.0mph /  14.5km/h 53% 0.00in /  0mm
04:34 34.6 °F /  1.4 °C 18.8 °F /  -7.3 °C 29.99in /  1015.5hPa NNE 1.0mph /  1.6km/h 7.0mph /  11.3km/h 52% 0.00in /  0mm
04:39 34.8 °F /  1.6 °C 19.0 °F /  -7.2 °C 29.99in /  1015.5hPa Calm   7.0mph /  11.3km/h 52% 0.00in /  0mm
04:44 35.0 °F /  1.7 °C 19.1 °F /  -7.2 °C 29.99in /  1015.5hPa Calm   3.0mph /  4.8km/h 52% 0.00in /  0mm
04:49 35.1 °F /  1.7 °C 19.2 °F /  -7.1 °C 29.99in /  1015.5hPa Calm   3.0mph /  4.8km/h 52% 0.00in /  0mm
05:00 35.2 °F /  1.8 °C 18.9 °F /  -7.3 °C 29.99in /  1015.5hPa NNE 1.0mph /  1.6km/h 5.0mph /  8km/h 51% 0.00in /  0mm
05:09 35.5 °F /  1.9 °C 18.2 °F /  -7.7 °C 29.99in /  1015.5hPa NNE 2.0mph /  3.2km/h 6.0mph /  9.7km/h 49% 0.00in /  0mm
05:14 35.5 °F /  1.9 °C 18.2 °F /  -7.7 °C 29.99in /  1015.5hPa NE 1.0mph /  1.6km/h 7.0mph /  11.3km/h 49% 0.00in /  0mm
05:20 35.6 °F /  2 °C 17.8 °F /  -7.9 °C 29.99in /  1015.5hPa NE 2.0mph /  3.2km/h 8.0mph /  12.9km/h 48% 0.00in /  0mm
05:29 35.6 °F /  2 °C 18.3 °F /  -7.6 °C 29.99in /  1015.5hPa NNE 1.0mph /  1.6km/h 9.0mph /  14.5km/h 49% 0.00in /  0mm
05:34 35.5 °F /  1.9 °C 17.3 °F /  -8.2 °C 29.99in /  1015.5hPa NNE 1.0mph /  1.6km/h 9.0mph /  14.5km/h 47% 0.00in /  0mm
05:39 35.4 °F /  1.9 °C 17.7 °F /  -7.9 °C 29.99in /  1015.5hPa NNE 1.0mph /  1.6km/h 9.0mph /  14.5km/h 48% 0.00in /  0mm
05:44 35.3 °F /  1.8 °C 17.6 °F /  -8 °C 29.99in /  1015.5hPa Calm   9.0mph /  14.5km/h 48% 0.00in /  0mm
05:49 35.2 °F /  1.8 °C 17.9 °F /  -7.8 °C 29.99in /  1015.5hPa Calm   8.0mph /  12.9km/h 49% 0.00in /  0mm
05:59 34.8 °F /  1.6 °C 17.1 °F /  -8.3 °C 30.00in /  1015.8hPa NNE 2.0mph /  3.2km/h 7.0mph /  11.3km/h 48% 0.00in /  0mm
06:09 34.4 °F /  1.3 °C 17.2 °F /  -8.2 °C 30.00in /  1015.8hPa Calm   6.0mph /  9.7km/h 49% 0.00in /  0mm
06:14 34.0 °F /  1.1 °C 16.8 °F /  -8.4 °C 30.00in /  1015.8hPa Calm   5.0mph /  8km/h 49% 0.00in /  0mm
06:19 33.7 °F /  0.9 °C 17.5 °F /  -8.1 °C 30.00in /  1015.8hPa Calm   4.0mph /  6.4km/h 51% 0.00in /  0mm
06:25 33.4 °F /  0.8 °C 17.7 °F /  -7.9 °C 30.00in /  1015.8hPa Calm   4.0mph /  6.4km/h 52% 0.00in /  0mm
06:30 33.1 °F /  0.6 °C 17.8 °F /  -7.9 °C 30.00in /  1015.8hPa Calm   3.0mph /  4.8km/h 53% 0.00in /  0mm
06:40 32.6 °F /  0.3 °C 16.9 °F /  -8.4 °C 30.01in /  1016.1hPa Calm   5.0mph /  8km/h 52% 0.00in /  0mm
06:49 32.3 °F /  0.2 °C 17.5 °F /  -8.1 °C 30.01in /  1016.1hPa Calm   3.0mph /  4.8km/h 54% 0.00in /  0mm
07:00 31.9 °F /  -0.1 °C 17.6 °F /  -8 °C 30.01in /  1016.1hPa Calm   6.0mph /  9.7km/h 55% 0.00in /  0mm
07:10 32.2 °F /  0.1 °C 17.0 °F /  -8.3 °C 30.02in /  1016.5hPa NNE 2.0mph /  3.2km/h 8.0mph /  12.9km/h 53% 0.00in /  0mm
07:20 32.8 °F /  0.4 °C 17.5 °F /  -8.1 °C 30.02in /  1016.5hPa NE 2.0mph /  3.2km/h 6.0mph /  9.7km/h 53% 0.00in /  0mm
07:29 33.5 °F /  0.8 °C 18.2 °F /  -7.7 °C 30.03in /  1016.8hPa NNE 2.0mph /  3.2km/h 9.0mph /  14.5km/h 53% 0.00in /  0mm
07:35 34.1 °F /  1.2 °C 18.3 °F /  -7.6 °C 30.03in /  1016.8hPa NNE 1.0mph /  1.6km/h 9.0mph /  14.5km/h 52% 0.00in /  0mm
07:45 34.6 °F /  1.4 °C 18.8 °F /  -7.3 °C 30.03in /  1016.8hPa NNE 1.0mph /  1.6km/h 5.0mph /  8km/h 52% 0.00in /  0mm
07:54 34.5 °F /  1.4 °C 19.1 °F /  -7.2 °C 30.03in /  1016.8hPa North 1.0mph /  1.6km/h 7.0mph /  11.3km/h 53% 0.00in /  0mm
07:59 35.1 °F /  1.7 °C 19.2 °F /  -7.1 °C 30.03in /  1016.8hPa Calm   7.0mph /  11.3km/h 52% 0.00in /  0mm
08:04 36.1 °F /  2.3 °C 19.3 °F /  -7.1 °C 30.03in /  1016.8hPa NNE 1.0mph /  1.6km/h 7.0mph /  11.3km/h 50% 0.00in /  0mm
08:09 36.9 °F /  2.7 °C 19.0 °F /  -7.2 °C 30.03in /  1016.8hPa NNE 5.0mph /  8km/h 9.0mph /  14.5km/h 48% 0.00in /  0mm
08:14 37.5 °F /  3.1 °C 20.1 °F /  -6.6 °C 30.03in /  1016.8hPa Calm   9.0mph /  14.5km/h 49% 0.00in /  0mm
08:19 37.9 °F /  3.3 °C 19.0 °F /  -7.2 °C 30.03in /  1016.8hPa North 4.0mph /  6.4km/h 8.0mph /  12.9km/h 46% 0.00in /  0mm
08:24 37.9 °F /  3.3 °C 19.5 °F /  -6.9 °C 30.03in /  1016.8hPa North 2.0mph /  3.2km/h 8.0mph /  12.9km/h 47% 0.00in /  0mm
08:29 38.1 °F /  3.4 °C 19.6 °F /  -6.9 °C 30.03in /  1016.8hPa NNE 2.0mph /  3.2km/h 8.0mph /  12.9km/h 47% 0.00in /  0mm
08:34 38.7 °F /  3.7 °C 20.7 °F /  -6.3 °C 30.03in /  1016.8hPa NNW 2.0mph /  3.2km/h 7.0mph /  11.3km/h 48% 0.00in /  0mm
08:39 39.4 °F /  4.1 °C 20.3 °F /  -6.5 °C 30.04in /  1017.2hPa North 1.0mph /  1.6km/h 8.0mph /  12.9km/h 46% 0.00in /  0mm
08:44 39.7 °F /  4.3 °C 19.6 °F /  -6.9 °C 30.04in /  1017.2hPa North 2.0mph /  3.2km/h 11.0mph /  17.7km/h 44% 0.00in /  0mm
08:50 39.7 °F /  4.3 °C 19.6 °F /  -6.9 °C 30.04in /  1017.2hPa North 3.0mph /  4.8km/h 11.0mph /  17.7km/h 44% 0.00in /  0mm
08:59 39.8 °F /  4.3 °C 19.7 °F /  -6.8 °C 30.04in /  1017.2hPa NNE 2.0mph /  3.2km/h 12.0mph /  19.3km/h 44% 0.00in /  0mm
09:09 40.9 °F /  4.9 °C 19.6 °F /  -6.9 °C 30.04in /  1017.2hPa North 5.0mph /  8km/h 11.0mph /  17.7km/h 42% 0.00in /  0mm
09:14 41.3 °F /  5.2 °C 21.0 °F /  -6.1 °C 30.04in /  1017.2hPa NNE 1.0mph /  1.6km/h 11.0mph /  17.7km/h 44% 0.00in /  0mm
09:19 41.7 °F /  5.4 °C 20.3 °F /  -6.5 °C 30.04in /  1017.2hPa North 1.0mph /  1.6km/h 8.0mph /  12.9km/h 42% 0.00in /  0mm
09:24 41.5 °F /  5.3 °C 19.5 °F /  -6.9 °C 30.04in /  1017.2hPa NNE 4.0mph /  6.4km/h 10.0mph /  16.1km/h 41% 0.00in /  0mm
09:29 41.4 °F /  5.2 °C 20.6 °F /  -6.3 °C 30.04in /  1017.2hPa North 3.0mph /  4.8km/h 10.0mph /  16.1km/h 43% 0.00in /  0mm
09:34 41.3 °F /  5.2 °C 19.9 °F /  -6.7 °C 30.04in /  1017.2hPa North 3.0mph /  4.8km/h 16.0mph /  25.7km/h 42% 0.00in /  0mm
09:40 40.9 °F /  4.9 °C 19.0 °F /  -7.2 °C 30.04in /  1017.2hPa North 2.0mph /  3.2km/h 16.0mph /  25.7km/h 41% 0.00in /  0mm
09:49 41.3 °F /  5.2 °C 19.9 °F /  -6.7 °C 30.04in /  1017.2hPa North 1.0mph /  1.6km/h 9.0mph /  14.5km/h 42% 0.00in /  0mm
09:54 41.4 °F /  5.2 °C 20.6 °F /  -6.3 °C 30.04in /  1017.2hPa North 1.0mph /  1.6km/h 10.0mph /  16.1km/h 43% 0.00in /  0mm
09:59 41.2 °F /  5.1 °C 20.4 °F /  -6.4 °C 30.04in /  1017.2hPa Calm   10.0mph /  16.1km/h 43% 0.00in /  0mm
10:09 41.4 °F /  5.2 °C 21.1 °F /  -6.1 °C 30.05in /  1017.5hPa North 3.0mph /  4.8km/h 9.0mph /  14.5km/h 44% 0.00in /  0mm
10:15 41.8 °F /  5.4 °C 20.9 °F /  -6.2 °C 30.05in /  1017.5hPa NW 4.0mph /  6.4km/h 9.0mph /  14.5km/h 43% 0.00in /  0mm
10:24 42.0 °F /  5.6 °C 21.1 °F /  -6.1 °C 30.05in /  1017.5hPa NNW 4.0mph /  6.4km/h 10.0mph /  16.1km/h 43% 0.00in /  0mm
10:30 42.4 °F /  5.8 °C 20.9 °F /  -6.2 °C 30.05in /  1017.5hPa NNW 6.0mph /  9.7km/h 13.0mph /  20.9km/h 42% 0.00in /  0mm
10:39 42.8 °F /  6 °C 21.3 °F /  -5.9 °C 30.05in /  1017.5hPa North 1.0mph /  1.6km/h 8.0mph /  12.9km/h 42% 0.00in /  0mm
10:45 43.6 °F /  6.4 °C 22.0 °F /  -5.6 °C 30.05in /  1017.5hPa NNW 2.0mph /  3.2km/h 9.0mph /  14.5km/h 42% 0.00in /  0mm
10:50 43.6 °F /  6.4 °C 20.9 °F /  -6.2 °C 30.05in /  1017.5hPa North 4.0mph /  6.4km/h 9.0mph /  14.5km/h 40% 0.00in /  0mm
10:59 43.5 °F /  6.4 °C 20.8 °F /  -6.2 °C 30.04in /  1017.2hPa North 3.0mph /  4.8km/h 10.0mph /  16.1km/h 40% 0.00in /  0mm
11:04 44.1 °F /  6.7 °C 21.3 °F /  -5.9 °C 30.04in /  1017.2hPa NNW 2.0mph /  3.2km/h 10.0mph /  16.1km/h 40% 0.00in /  0mm
11:09 44.3 °F /  6.8 °C 22.1 °F /  -5.5 °C 30.04in /  1017.2hPa NW 3.0mph /  4.8km/h 12.0mph /  19.3km/h 41% 0.00in /  0mm
11:14 43.8 °F /  6.6 °C 20.4 °F /  -6.4 °C 30.04in /  1017.2hPa NW 8.0mph /  12.9km/h 15.0mph /  24.1km/h 39% 0.00in /  0mm
11:19 43.2 °F /  6.2 °C 19.9 °F /  -6.7 °C 30.04in /  1017.2hPa North 3.0mph /  4.8km/h 15.0mph /  24.1km/h 39% 0.00in /  0mm
11:24 43.2 °F /  6.2 °C 20.5 °F /  -6.4 °C 30.03in /  1016.8hPa NW 5.0mph /  8km/h 14.0mph /  22.5km/h 40% 0.00in /  0mm
11:29 42.8 °F /  6 °C 19.5 °F /  -6.9 °C 30.04in /  1017.2hPa NW 8.0mph /  12.9km/h 16.0mph /  25.7km/h 39% 0.00in /  0mm
11:35 42.8 °F /  6 °C 19.5 °F /  -6.9 °C 30.03in /  1016.8hPa NNW 2.0mph /  3.2km/h 16.0mph /  25.7km/h 39% 0.00in /  0mm
11:45 42.9 °F /  6.1 °C 19.0 °F /  -7.2 °C 30.03in /  1016.8hPa NNW 4.0mph /  6.4km/h 13.0mph /  20.9km/h 38% 0.00in /  0mm
11:54 42.5 °F /  5.8 °C 18.1 °F /  -7.7 °C 30.04in /  1017.2hPa NW 5.0mph /  8km/h 11.0mph /  17.7km/h 37% 0.00in /  0mm
11:59 42.2 °F /  5.7 °C 19.0 °F /  -7.2 °C 30.03in /  1016.8hPa NNW 2.0mph /  3.2km/h 16.0mph /  25.7km/h 39% 0.00in /  0mm
12:09 42.7 °F /  5.9 °C 18.9 °F /  -7.3 °C 30.03in /  1016.8hPa NW 9.0mph /  14.5km/h 15.0mph /  24.1km/h 38% 0.00in /  0mm
12:14 42.5 °F /  5.8 °C 19.3 °F /  -7.1 °C 30.03in /  1016.8hPa NW 7.0mph /  11.3km/h 16.0mph /  25.7km/h 39% 0.00in /  0mm
12:19 42.9 °F /  6.1 °C 19.6 °F /  -6.9 °C 30.03in /  1016.8hPa NNW 6.0mph /  9.7km/h 16.0mph /  25.7km/h 39% 0.00in /  0mm
12:24 43.1 °F /  6.2 °C 20.4 °F /  -6.4 °C 30.03in /  1016.8hPa NW 6.0mph /  9.7km/h 16.0mph /  25.7km/h 40% 0.00in /  0mm
12:29 43.2 °F /  6.2 °C 18.7 °F /  -7.4 °C 30.03in /  1016.8hPa NNW 5.0mph /  8km/h 16.0mph /  25.7km/h 37% 0.00in /  0mm
12:34 43.6 °F /  6.4 °C 20.3 °F /  -6.5 °C 30.03in /  1016.8hPa NNE 6.0mph /  9.7km/h 19.0mph /  30.6km/h 39% 0.00in /  0mm
12:40 43.8 °F /  6.6 °C 19.8 °F /  -6.8 °C 30.03in /  1016.8hPa NNW 5.0mph /  8km/h 19.0mph /  30.6km/h 38% 0.00in /  0mm
12:45 44.1 °F /  6.7 °C 20.7 °F /  -6.3 °C 30.03in /  1016.8hPa NNW 3.0mph /  4.8km/h 13.0mph /  20.9km/h 39% 0.00in /  0mm
12:54 44.1 °F /  6.7 °C 19.5 °F /  -6.9 °C 30.03in /  1016.8hPa NW 8.0mph /  12.9km/h 17.0mph /  27.4km/h 37% 0.00in /  0mm
13:04 44.4 °F /  6.9 °C 19.7 °F /  -6.8 °C 30.02in /  1016.5hPa NW 5.0mph /  8km/h 15.0mph /  24.1km/h 37% 0.00in /  0mm
13:09 44.3 °F /  6.8 °C 19.0 °F /  -7.2 °C 30.02in /  1016.5hPa NW 9.0mph /  14.5km/h 17.0mph /  27.4km/h 36% 0.00in /  0mm
13:14 45.0 °F /  7.2 °C 20.3 °F /  -6.5 °C 30.02in /  1016.5hPa NNW 5.0mph /  8km/h 17.0mph /  27.4km/h 37% 0.00in /  0mm
13:19 45.7 °F /  7.6 °C 21.5 °F /  -5.8 °C 30.02in /  1016.5hPa NNW 4.0mph /  6.4km/h 12.0mph /  19.3km/h 38% 0.00in /  0mm
13:24 46.0 °F /  7.8 °C 21.2 °F /  -6 °C 30.02in /  1016.5hPa North 2.0mph /  3.2km/h 12.0mph /  19.3km/h 37% 0.00in /  0mm
13:35 44.1 °F /  6.7 °C 18.8 °F /  -7.3 °C 30.02in /  1016.5hPa NW 8.0mph /  12.9km/h 14.0mph /  22.5km/h 36% 0.00in /  0mm
13:44 43.3 °F /  6.3 °C 19.4 °F /  -7 °C 30.02in /  1016.5hPa NW 5.0mph /  8km/h 20.0mph /  32.2km/h 38% 0.00in /  0mm
13:49 43.8 °F /  6.6 °C 19.8 °F /  -6.8 °C 30.02in /  1016.5hPa NNW 4.0mph /  6.4km/h 13.0mph /  20.9km/h 38% 0.00in /  0mm
13:54 44.1 °F /  6.7 °C 19.5 °F /  -6.9 °C 30.02in /  1016.5hPa NW 9.0mph /  14.5km/h 14.0mph /  22.5km/h 37% 0.00in /  0mm
13:59 44.0 °F /  6.7 °C 20.6 °F /  -6.3 °C 30.02in /  1016.5hPa NNE 7.0mph /  11.3km/h 17.0mph /  27.4km/h 39% 0.00in /  0mm
14:04 44.2 °F /  6.8 °C 20.2 °F /  -6.6 °C 30.02in /  1016.5hPa North 2.0mph /  3.2km/h 17.0mph /  27.4km/h 38% 0.00in /  0mm
14:09 44.1 °F /  6.7 °C 20.1 °F /  -6.6 °C 30.02in /  1016.5hPa North 3.0mph /  4.8km/h 12.0mph /  19.3km/h 38% 0.00in /  0mm
14:14 44.1 °F /  6.7 °C 20.7 °F /  -6.3 °C 30.02in /  1016.5hPa NNW 5.0mph /  8km/h 12.0mph /  19.3km/h 39% 0.00in /  0mm
14:19 44.1 °F /  6.7 °C 20.7 °F /  -6.3 °C 30.02in /  1016.5hPa North 4.0mph /  6.4km/h 12.0mph /  19.3km/h 39% 0.00in /  0mm
14:24 44.2 °F /  6.8 °C 21.4 °F /  -5.9 °C 30.02in /  1016.5hPa North 4.0mph /  6.4km/h 14.0mph /  22.5km/h 40% 0.00in /  0mm
14:29 44.2 °F /  6.8 °C 20.8 °F /  -6.2 °C 30.02in /  1016.5hPa North 5.0mph /  8km/h 15.0mph /  24.1km/h 39% 0.00in /  0mm
14:39 43.8 °F /  6.6 °C 21.0 °F /  -6.1 °C 30.02in /  1016.5hPa NNE 6.0mph /  9.7km/h 13.0mph /  20.9km/h 40% 0.00in /  0mm
14:45 43.6 °F /  6.4 °C 20.3 °F /  -6.5 °C 30.02in /  1016.5hPa NNW 5.0mph /  8km/h 14.0mph /  22.5km/h 39% 0.00in /  0mm
14:54 44.4 °F /  6.9 °C 21.6 °F /  -5.8 °C 30.02in /  1016.5hPa North 6.0mph /  9.7km/h 14.0mph /  22.5km/h 40% 0.00in /  0mm
14:59 45.0 °F /  7.2 °C 21.5 °F /  -5.8 °C 30.02in /  1016.5hPa North 3.0mph /  4.8km/h 13.0mph /  20.9km/h 39% 0.00in /  0mm
15:04 45.0 °F /  7.2 °C 21.5 °F /  -5.8 °C 30.01in /  1016.1hPa North 3.0mph /  4.8km/h 10.0mph /  16.1km/h 39% 0.00in /  0mm
15:09 45.5 °F /  7.5 °C 22.0 °F /  -5.6 °C 30.01in /  1016.1hPa NNW 3.0mph /  4.8km/h 12.0mph /  19.3km/h 39% 0.00in /  0mm
15:14 45.4 °F /  7.4 °C 22.5 °F /  -5.3 °C 30.01in /  1016.1hPa NNE 3.0mph /  4.8km/h 13.0mph /  20.9km/h 40% 0.00in /  0mm
15:19 44.8 °F /  7.1 °C 20.7 °F /  -6.3 °C 30.01in /  1016.1hPa NW 7.0mph /  11.3km/h 14.0mph /  22.5km/h 38% 0.00in /  0mm
15:24 44.4 °F /  6.9 °C 21.0 °F /  -6.1 °C 30.01in /  1016.1hPa NW 5.0mph /  8km/h 14.0mph /  22.5km/h 39% 0.00in /  0mm
15:29 44.3 °F /  6.8 °C 21.5 °F /  -5.8 °C 30.01in /  1016.1hPa NNW 5.0mph /  8km/h 12.0mph /  19.3km/h 40% 0.00in /  0mm
15:35 44.4 °F /  6.9 °C 21.6 °F /  -5.8 °C 30.01in /  1016.1hPa NNW 5.0mph /  8km/h 14.0mph /  22.5km/h 40% 0.00in /  0mm
15:40 44.4 °F /  6.9 °C 21.6 °F /  -5.8 °C 30.01in /  1016.1hPa North 1.0mph /  1.6km/h 14.0mph /  22.5km/h 40% 0.00in /  0mm
15:49 44.2 °F /  6.8 °C 21.4 °F /  -5.9 °C 30.01in /  1016.1hPa NNW 5.0mph /  8km/h 10.0mph /  16.1km/h 40% 0.00in /  0mm
16:00 43.3 °F /  6.3 °C 21.2 °F /  -6 °C 30.01in /  1016.1hPa NNW 7.0mph /  11.3km/h 17.0mph /  27.4km/h 41% 0.00in /  0mm
16:09 43.1 °F /  6.2 °C 21.6 °F /  -5.8 °C 30.01in /  1016.1hPa NNW 4.0mph /  6.4km/h 17.0mph /  27.4km/h 42% 0.00in /  0mm
16:15 43.2 °F /  6.2 °C 21.1 °F /  -6.1 °C 30.01in /  1016.1hPa NNW 5.0mph /  8km/h 15.0mph /  24.1km/h 41% 0.00in /  0mm
16:24 42.8 °F /  6 °C 20.1 °F /  -6.6 °C 30.01in /  1016.1hPa NW 6.0mph /  9.7km/h 14.0mph /  22.5km/h 40% 0.00in /  0mm
16:34 43.0 °F /  6.1 °C 21.5 °F /  -5.8 °C 30.01in /  1016.1hPa NNE 2.0mph /  3.2km/h 9.0mph /  14.5km/h 42% 0.00in /  0mm
16:50 43.1 °F /  6.2 °C 22.1 °F /  -5.5 °C 30.01in /  1016.1hPa North 2.0mph /  3.2km/h 11.0mph /  17.7km/h 43% 0.00in /  0mm
16:59 43.1 °F /  6.2 °C 21.6 °F /  -5.8 °C 30.01in /  1016.1hPa NW 2.0mph /  3.2km/h 15.0mph /  24.1km/h 42% 0.00in /  0mm
17:05 43.3 °F /  6.3 °C 21.7 °F /  -5.7 °C 30.01in /  1016.1hPa North 2.0mph /  3.2km/h 12.0mph /  19.3km/h 42% 0.00in /  0mm
17:14 43.9 °F /  6.6 °C 22.3 °F /  -5.4 °C 30.01in /  1016.1hPa NNW 6.0mph /  9.7km/h 13.0mph /  20.9km/h 42% 0.00in /  0mm
17:20 43.5 °F /  6.4 °C 21.4 °F /  -5.9 °C 30.01in /  1016.1hPa NW 5.0mph /  8km/h 13.0mph /  20.9km/h 41% 0.00in /  0mm
17:25 43.3 °F /  6.3 °C 21.7 °F /  -5.7 °C 30.01in /  1016.1hPa NNW 4.0mph /  6.4km/h 13.0mph /  20.9km/h 42% 0.00in /  0mm
17:35 43.4 °F /  6.3 °C 21.8 °F /  -5.7 °C 30.02in /  1016.5hPa North 3.0mph /  4.8km/h 8.0mph /  12.9km/h 42% 0.00in /  0mm
17:44 43.3 °F /  6.3 °C 21.7 °F /  -5.7 °C 30.02in /  1016.5hPa NNE 1.0mph /  1.6km/h 10.0mph /  16.1km/h 42% 0.00in /  0mm
17:49 43.1 °F /  6.2 °C 22.1 °F /  -5.5 °C 30.02in /  1016.5hPa North 2.0mph /  3.2km/h 10.0mph /  16.1km/h 43% 0.00in /  0mm
17:55 43.0 °F /  6.1 °C 21.5 °F /  -5.8 °C 30.02in /  1016.5hPa North 2.0mph /  3.2km/h 10.0mph /  16.1km/h 42% 0.00in /  0mm
18:00 42.9 °F /  6.1 °C 21.4 °F /  -5.9 °C 30.02in /  1016.5hPa NNE 5.0mph /  8km/h 9.0mph /  14.5km/h 42% 0.00in /  0mm
18:09 42.7 °F /  5.9 °C 21.2 °F /  -6 °C 30.02in /  1016.5hPa North 3.0mph /  4.8km/h 10.0mph /  16.1km/h 42% 0.00in /  0mm
18:14 42.5 °F /  5.8 °C 21.0 °F /  -6.1 °C 30.02in /  1016.5hPa NNW 2.0mph /  3.2km/h 7.0mph /  11.3km/h 42% 0.00in /  0mm
18:19 42.3 °F /  5.7 °C 21.4 °F /  -5.9 °C 30.02in /  1016.5hPa Calm   7.0mph /  11.3km/h 43% 0.00in /  0mm
18:24 42.2 °F /  5.7 °C 21.3 °F /  -5.9 °C 30.02in /  1016.5hPa NNW 4.0mph /  6.4km/h 8.0mph /  12.9km/h 43% 0.00in /  0mm
18:34 41.8 °F /  5.4 °C 20.9 °F /  -6.2 °C 30.02in /  1016.5hPa North 1.0mph /  1.6km/h 9.0mph /  14.5km/h 43% 0.00in /  0mm
18:40 41.6 °F /  5.3 °C 21.3 °F /  -5.9 °C 30.02in /  1016.5hPa Calm   9.0mph /  14.5km/h 44% 0.00in /  0mm
18:50 41.3 °F /  5.2 °C 21.0 °F /  -6.1 °C 30.02in /  1016.5hPa Calm   5.0mph /  8km/h 44% 0.00in /  0mm
18:59 41.0 °F /  5 °C 21.8 °F /  -5.7 °C 30.02in /  1016.5hPa Calm   6.0mph /  9.7km/h 46% 0.00in /  0mm
19:04 40.9 °F /  4.9 °C 21.2 °F /  -6 °C 30.02in /  1016.5hPa Calm   6.0mph /  9.7km/h 45% 0.00in /  0mm
19:09 40.7 °F /  4.8 °C 21.0 °F /  -6.1 °C 30.02in /  1016.5hPa Calm   6.0mph /  9.7km/h 45% 0.00in /  0mm
19:14 40.6 °F /  4.8 °C 21.4 °F /  -5.9 °C 30.02in /  1016.5hPa Calm   1.0mph /  1.6km/h 46% 0.00in /  0mm
19:19 40.5 °F /  4.7 °C 21.3 °F /  -5.9 °C 30.02in /  1016.5hPa NW 1.0mph /  1.6km/h 4.0mph /  6.4km/h 46% 0.00in /  0mm
19:24 40.3 °F /  4.6 °C 20.6 °F /  -6.3 °C 30.02in /  1016.5hPa Calm   4.0mph /  6.4km/h 45% 0.00in /  0mm
19:29 40.3 °F /  4.6 °C 20.6 °F /  -6.3 °C 30.02in /  1016.5hPa Calm   3.0mph /  4.8km/h 45% 0.00in /  0mm
19:34 40.2 °F /  4.6 °C 21.1 °F /  -6.1 °C 30.02in /  1016.5hPa Calm   3.0mph /  4.8km/h 46% 0.00in /  0mm
19:45 40.0 °F /  4.4 °C 21.9 °F /  -5.6 °C 30.02in /  1016.5hPa Calm   4.0mph /  6.4km/h 48% 0.00in /  0mm
19:54 39.8 °F /  4.3 °C 21.2 °F /  -6 °C 30.02in /  1016.5hPa Calm   2.0mph /  3.2km/h 47% 0.00in /  0mm
19:59 39.7 °F /  4.3 °C 21.6 °F /  -5.8 °C 30.02in /  1016.5hPa NNE 1.0mph /  1.6km/h 4.0mph /  6.4km/h 48% 0.00in /  0mm
20:04 39.7 °F /  4.3 °C 22.1 °F /  -5.5 °C 30.02in /  1016.5hPa Calm   4.0mph /  6.4km/h 49% 0.00in /  0mm
20:09 39.6 °F /  4.2 °C 22.0 °F /  -5.6 °C 30.02in /  1016.5hPa Calm   2.0mph /  3.2km/h 49% 0.00in /  0mm
20:14 39.5 °F /  4.2 °C 21.4 °F /  -5.9 °C 30.02in /  1016.5hPa Calm   1.0mph /  1.6km/h 48% 0.00in /  0mm
20:19 39.5 °F /  4.2 °C 20.9 °F /  -6.2 °C 30.02in /  1016.5hPa NNW 1.0mph /  1.6km/h 5.0mph /  8km/h 47% 0.00in /  0mm
20:24 39.5 °F /  4.2 °C 20.9 °F /  -6.2 °C 30.02in /  1016.5hPa NNW 1.0mph /  1.6km/h 5.0mph /  8km/h 47% 0.00in /  0mm
20:34 39.6 °F /  4.2 °C 21.5 °F /  -5.8 °C 30.02in /  1016.5hPa Calm   4.0mph /  6.4km/h 48% 0.00in /  0mm
20:44 39.5 °F /  4.2 °C 21.4 °F /  -5.9 °C 30.02in /  1016.5hPa Calm   4.0mph /  6.4km/h 48% 0.00in /  0mm
20:54 39.3 °F /  4.1 °C 22.7 °F /  -5.2 °C 30.02in /  1016.5hPa Calm     51% 0.00in /  0mm
20:59 39.2 °F /  4 °C 22.6 °F /  -5.2 °C 30.02in /  1016.5hPa Calm     51% 0.00in /  0mm
21:09 39.0 °F /  3.9 °C 22.4 °F /  -5.3 °C 30.02in /  1016.5hPa Calm     51% 0.00in /  0mm
21:15 38.9 °F /  3.8 °C 21.8 °F /  -5.7 °C 30.02in /  1016.5hPa Calm     50% 0.00in /  0mm
21:24 38.8 °F /  3.8 °C 22.2 °F /  -5.4 °C 30.02in /  1016.5hPa Calm   1.0mph /  1.6km/h 51% 0.00in /  0mm
21:29 38.8 °F /  3.8 °C 22.2 °F /  -5.4 °C 30.02in /  1016.5hPa Calm   1.0mph /  1.6km/h 51% 0.00in /  0mm
21:34 38.7 °F /  3.7 °C 22.6 °F /  -5.2 °C 30.02in /  1016.5hPa Calm   1.0mph /  1.6km/h 52% 0.00in /  0mm
21:40 38.7 °F /  3.7 °C 22.6 °F /  -5.2 °C 30.02in /  1016.5hPa Calm   1.0mph /  1.6km/h 52% 0.00in /  0mm
21:50 38.7 °F /  3.7 °C 23.5 °F /  -4.7 °C 30.02in /  1016.5hPa Calm   1.0mph /  1.6km/h 54% 0.00in /  0mm
21:59 38.6 °F /  3.7 °C 22.9 °F /  -5.1 °C 30.02in /  1016.5hPa Calm   3.0mph /  4.8km/h 53% 0.00in /  0mm
22:04 38.6 °F /  3.7 °C 23.4 °F /  -4.8 °C 30.01in /  1016.1hPa Calm   5.0mph /  8km/h 54% 0.00in /  0mm
22:09 38.6 °F /  3.7 °C 23.4 °F /  -4.8 °C 30.01in /  1016.1hPa Calm   5.0mph /  8km/h 54% 0.00in /  0mm
22:14 38.5 °F /  3.6 °C 23.7 °F /  -4.6 °C 30.01in /  1016.1hPa Calm   1.0mph /  1.6km/h 55% 0.00in /  0mm
22:19 38.4 °F /  3.6 °C 24.1 °F /  -4.4 °C 30.01in /  1016.1hPa Calm     56% 0.00in /  0mm
22:24 38.3 °F /  3.5 °C 24.0 °F /  -4.4 °C 30.01in /  1016.1hPa Calm   1.0mph /  1.6km/h 56% 0.00in /  0mm
22:29 38.2 °F /  3.4 °C 23.9 °F /  -4.5 °C 30.01in /  1016.1hPa Calm   1.0mph /  1.6km/h 56% 0.00in /  0mm
22:39 38.2 °F /  3.4 °C 24.3 °F /  -4.3 °C 30.01in /  1016.1hPa Calm   3.0mph /  4.8km/h 57% 0.00in /  0mm
22:44 38.2 °F /  3.4 °C 24.3 °F /  -4.3 °C 30.00in /  1015.8hPa Calm   3.0mph /  4.8km/h 57% 0.00in /  0mm
22:50 38.2 °F /  3.4 °C 24.3 °F /  -4.3 °C 30.00in /  1015.8hPa Calm   3.0mph /  4.8km/h 57% 0.00in /  0mm
22:59 38.4 °F /  3.6 °C 24.1 °F /  -4.4 °C 30.00in /  1015.8hPa NE 1.0mph /  1.6km/h 6.0mph /  9.7km/h 56% 0.00in /  0mm
23:04 38.5 °F /  3.6 °C 24.2 °F /  -4.3 °C 30.00in /  1015.8hPa North 1.0mph /  1.6km/h 4.0mph /  6.4km/h 56% 0.00in /  0mm
23:15 38.7 °F /  3.7 °C 24.8 °F /  -4 °C 30.00in /  1015.8hPa NNE 1.0mph /  1.6km/h 7.0mph /  11.3km/h 57% 0.00in /  0mm
23:24 38.7 °F /  3.7 °C 23.9 °F /  -4.5 °C 29.99in /  1015.5hPa Calm   7.0mph /  11.3km/h 55% 0.00in /  0mm
23:29 38.7 °F /  3.7 °C 24.4 °F /  -4.2 °C 29.99in /  1015.5hPa Calm   7.0mph /  11.3km/h 56% 0.00in /  0mm
23:35 38.6 °F /  3.7 °C 24.3 °F /  -4.3 °C 29.99in /  1015.5hPa Calm   5.0mph /  8km/h 56% 0.00in /  0mm
23:44 38.4 °F /  3.6 °C 24.5 °F /  -4.2 °C 29.99in /  1015.5hPa Calm   7.0mph /  11.3km/h 57% 0.00in /  0mm
23:55 38.1 °F /  3.4 °C 23.8 °F /  -4.6 °C 29.98in /  1015.1hPa Calm   5.0mph /  8km/h 56% 0.00in /  0mm
Westford Weather
Compliments of Weather Underground

 
 
Current Radar Loop:

Copyright © WestfordWeather.net 2007-2014. All rights reserved.